createdAt,value
2018-02-06T00:00:10.770Z,1010.17
2018-02-06T00:01:06.717Z,1010.22
2018-02-06T00:01:59.370Z,1010.19
2018-02-06T00:02:51.033Z,1010.2
2018-02-06T00:03:44.604Z,1010.15
2018-02-06T00:04:37.827Z,1010.12
2018-02-06T00:05:30.177Z,1010.11
2018-02-06T00:06:22.657Z,1010.1
2018-02-06T00:07:21.141Z,1010.08
2018-02-06T00:08:13.818Z,1010.12
2018-02-06T00:09:07.573Z,1010.06
2018-02-06T00:10:02.649Z,1010.02
2018-02-06T00:10:55.176Z,1009.97
2018-02-06T00:11:47.274Z,1009.99
2018-02-06T00:12:40.000Z,1009.93
2018-02-06T00:15:10.290Z,1009.9
2018-02-06T00:15:50.461Z,1009.86
2018-02-06T00:16:30.854Z,1009.85
2018-02-06T00:17:11.267Z,1009.81
2018-02-06T00:17:51.683Z,1009.79
2018-02-06T00:18:32.093Z,1009.76
2018-02-06T00:19:12.468Z,1009.74
2018-02-06T00:19:52.916Z,1009.73
2018-02-06T00:20:33.293Z,1009.74
2018-02-06T00:21:13.707Z,1009.69
2018-02-06T00:23:47.080Z,1009.67
2018-02-06T00:24:27.524Z,1009.6
2018-02-06T00:25:07.963Z,1009.63
2018-02-06T00:25:49.111Z,1009.59
2018-02-06T00:26:29.525Z,1009.63
2018-02-06T00:27:09.886Z,1009.63
2018-02-06T00:27:50.307Z,1009.59
2018-02-06T00:28:30.856Z,1009.59
2018-02-06T00:29:11.113Z,1009.57
2018-02-06T00:31:10.899Z,1009.51
2018-02-06T00:31:51.393Z,1009.53
2018-02-06T00:32:31.767Z,1009.46
2018-02-06T00:33:12.133Z,1009.49
2018-02-06T00:33:52.568Z,1009.48
2018-02-06T00:34:32.974Z,1009.41
2018-02-06T00:35:13.360Z,1009.43
2018-02-06T00:35:53.761Z,1009.4
2018-02-06T00:36:34.175Z,1009.37
2018-02-06T00:37:14.570Z,1009.36
2018-02-06T00:37:54.995Z,1009.37
2018-02-06T00:38:35.410Z,1009.31
2018-02-06T00:39:15.862Z,1009.35
2018-02-06T00:39:56.247Z,1009.36
2018-02-06T00:40:36.640Z,1009.37
2018-02-06T00:41:17.011Z,1009.36
2018-02-06T00:41:57.383Z,1009.4
2018-02-06T00:42:37.822Z,1009.34
2018-02-06T00:43:18.149Z,1009.37
2018-02-06T00:43:58.535Z,1009.38
2018-02-06T00:44:38.974Z,1009.37
2018-02-06T00:45:19.366Z,1009.36
2018-02-06T00:45:59.771Z,1009.37
2018-02-06T00:46:40.134Z,1009.38
2018-02-06T00:47:20.498Z,1009.34
2018-02-06T00:49:21.749Z,1009.32
2018-02-06T00:50:01.455Z,1009.34
2018-02-06T00:50:41.877Z,1009.33
2018-02-06T00:51:22.261Z,1009.28
2018-02-06T00:52:02.609Z,1009.26
2018-02-06T00:52:42.990Z,1009.24
2018-02-06T00:53:23.399Z,1009.21
2018-02-06T00:54:03.784Z,1009.17
2018-02-06T00:54:44.201Z,1009.18
2018-02-06T00:55:24.594Z,1009.17
2018-02-06T00:56:04.990Z,1009.13
2018-02-06T00:56:45.380Z,1009.12
2018-02-06T00:57:25.826Z,1009.13
2018-02-06T00:58:06.183Z,1009.11
2018-02-06T00:58:46.576Z,1009.08
2018-02-06T00:59:26.960Z,1009.07
2018-02-06T01:00:07.336Z,1009.08
2018-02-06T01:00:47.696Z,1009.13
2018-02-06T01:01:28.194Z,1009.12
2018-02-06T01:02:08.526Z,1009.11
2018-02-06T01:02:48.955Z,1009.12
2018-02-06T01:03:29.338Z,1009.09
2018-02-06T01:04:09.734Z,1009.11
2018-02-06T01:04:50.137Z,1009.11
2018-02-06T01:05:30.533Z,1009.09
2018-02-06T01:06:10.996Z,1009.09
2018-02-06T01:06:51.361Z,1009.09
2018-02-06T01:07:31.761Z,1009.09
2018-02-06T01:08:12.143Z,1009.14
2018-02-06T01:08:52.519Z,1009.13
2018-02-06T01:10:56.595Z,1009.1
2018-02-06T01:11:34.408Z,1009.11
2018-02-06T01:12:14.768Z,1009.09
2018-02-06T01:12:55.164Z,1009.09
2018-02-06T01:13:35.574Z,1009.04
2018-02-06T01:14:16.014Z,1009.03
2018-02-06T01:14:56.415Z,1009.04
2018-02-06T01:15:36.777Z,1009.05
2018-02-06T01:16:17.186Z,1009.03
2018-02-06T01:16:57.581Z,1008.97
2018-02-06T01:17:38.025Z,1008.94
2018-02-06T01:18:18.389Z,1008.93
2018-02-06T01:18:58.788Z,1008.96
2018-02-06T01:19:39.178Z,1008.89
2018-02-06T01:20:19.545Z,1008.86
2018-02-06T01:20:59.950Z,1008.89
2018-02-06T01:21:40.314Z,1008.82
2018-02-06T01:22:20.727Z,1008.88
2018-02-06T01:23:01.079Z,1008.83
2018-02-06T01:23:41.525Z,1008.87
2018-02-06T01:24:21.849Z,1008.86
2018-02-06T01:25:02.239Z,1008.83
2018-02-06T01:25:42.639Z,1008.82
2018-02-06T01:26:23.060Z,1008.83
2018-02-06T01:27:03.485Z,1008.84
2018-02-06T01:27:43.888Z,1008.88
2018-02-06T01:30:03.824Z,1008.84
2018-02-06T01:30:43.101Z,1008.84
2018-02-06T01:31:23.514Z,1008.86
2018-02-06T01:32:03.945Z,1008.81
2018-02-06T01:32:44.322Z,1008.82
2018-02-06T01:33:24.722Z,1008.84
2018-02-06T01:34:05.153Z,1008.84
2018-02-06T01:34:45.569Z,1008.83
2018-02-06T01:35:25.941Z,1008.81
2018-02-06T01:36:06.325Z,1008.82
2018-02-06T01:36:46.723Z,1008.78
2018-02-06T01:37:27.119Z,1008.75
2018-02-06T01:38:07.499Z,1008.78
2018-02-06T01:38:47.957Z,1008.74
2018-02-06T01:39:28.334Z,1008.75
2018-02-06T01:42:37.274Z,1008.75
2018-02-06T01:43:17.745Z,1008.71
2018-02-06T01:43:58.188Z,1008.73
2018-02-06T01:44:38.494Z,1008.72
2018-02-06T01:45:18.897Z,1008.71
2018-02-06T01:45:59.304Z,1008.67
2018-02-06T01:46:39.678Z,1008.65
2018-02-06T01:47:20.118Z,1008.68
2018-02-06T01:48:00.484Z,1008.61
2018-02-06T01:48:40.885Z,1008.65
2018-02-06T01:49:21.287Z,1008.61
2018-02-06T01:52:55.212Z,1008.51
2018-02-06T01:53:36.761Z,1008.51
2018-02-06T01:54:17.152Z,1008.47
2018-02-06T01:54:57.536Z,1008.5
2018-02-06T01:55:37.926Z,1008.47
2018-02-06T01:56:18.373Z,1008.48
2018-02-06T01:56:58.729Z,1008.52
2018-02-06T01:57:39.151Z,1008.49
2018-02-06T01:58:19.568Z,1008.5
2018-02-06T01:59:00.038Z,1008.49
2018-02-06T01:59:40.399Z,1008.45
2018-02-06T02:00:20.876Z,1008.47
2018-02-06T02:01:01.207Z,1008.44
2018-02-06T02:01:41.589Z,1008.49
2018-02-06T02:02:21.992Z,1008.42
2018-02-06T02:03:02.393Z,1008.43
2018-02-06T02:03:42.801Z,1008.43
2018-02-06T02:04:23.205Z,1008.43
2018-02-06T02:05:03.632Z,1008.37
2018-02-06T02:05:44.062Z,1008.35
2018-02-06T02:06:24.438Z,1008.39
2018-02-06T02:07:04.852Z,1008.37
2018-02-06T02:07:45.199Z,1008.37
2018-02-06T02:08:25.561Z,1008.34
2018-02-06T02:09:05.989Z,1008.37
2018-02-06T02:09:46.409Z,1008.34
2018-02-06T02:10:26.765Z,1008.27
2018-02-06T02:11:07.202Z,1008.33
2018-02-06T02:11:47.723Z,1008.26
2018-02-06T02:12:28.044Z,1008.26
2018-02-06T02:13:08.399Z,1008.24
2018-02-06T02:13:48.787Z,1008.22
2018-02-06T02:14:29.167Z,1008.17
2018-02-06T02:15:09.598Z,1008.18
2018-02-06T02:15:50.029Z,1008.14
2018-02-06T02:16:30.373Z,1008.13
2018-02-06T02:17:10.772Z,1008.04
2018-02-06T02:17:51.168Z,1008.05
2018-02-06T02:18:31.628Z,1008.05
2018-02-06T02:19:11.993Z,1008.02
2018-02-06T02:19:52.373Z,1008.05
2018-02-06T02:20:32.758Z,1008.03
2018-02-06T02:21:13.228Z,1008.03
2018-02-06T02:21:53.529Z,1008.04
2018-02-06T02:22:33.903Z,1008.04
2018-02-06T02:23:14.292Z,1008.03
2018-02-06T02:23:54.733Z,1007.99
2018-02-06T02:24:35.101Z,1008
2018-02-06T02:25:15.508Z,1007.99
2018-02-06T02:25:55.964Z,1007.98
2018-02-06T02:26:36.311Z,1007.95
2018-02-06T02:27:16.714Z,1007.97
2018-02-06T02:27:57.069Z,1007.9
2018-02-06T02:28:37.468Z,1007.9
2018-02-06T02:29:17.854Z,1007.92
2018-02-06T02:29:58.261Z,1007.9
2018-02-06T02:30:38.642Z,1007.9
2018-02-06T02:31:19.082Z,1007.85
2018-02-06T02:31:59.476Z,1007.87
2018-02-06T02:32:39.871Z,1007.86
2018-02-06T02:33:20.267Z,1007.88
2018-02-06T02:34:00.708Z,1007.87
2018-02-06T02:34:41.095Z,1007.86
2018-02-06T02:35:21.467Z,1007.88
2018-02-06T02:36:01.920Z,1007.86
2018-02-06T02:36:42.303Z,1007.87
2018-02-06T02:37:22.679Z,1007.84
2018-02-06T02:38:03.148Z,1007.82
2018-02-06T02:38:43.470Z,1007.77
2018-02-06T02:39:23.853Z,1007.81
2018-02-06T02:40:04.249Z,1007.77
2018-02-06T02:40:44.713Z,1007.81
2018-02-06T02:41:25.066Z,1007.78
2018-02-06T04:42:14.580Z,1006.31
2018-02-06T04:42:54.890Z,1006.32
2018-02-06T04:43:35.271Z,1006.3
2018-02-06T04:44:15.658Z,1006.31
2018-02-06T04:44:56.028Z,1006.28
2018-02-06T04:47:13.685Z,1006.32
2018-02-06T04:47:54.089Z,1006.31
2018-02-06T04:48:34.508Z,1006.32
2018-02-06T04:49:14.845Z,1006.26
2018-02-06T04:49:55.275Z,1006.33
2018-02-06T04:50:35.726Z,1006.29
2018-02-06T04:51:16.068Z,1006.26
2018-02-06T04:51:56.496Z,1006.27
2018-02-06T04:52:36.897Z,1006.28
2018-02-06T04:53:17.263Z,1006.26
2018-02-06T04:53:57.663Z,1006.23
2018-02-06T04:54:38.027Z,1006.19
2018-02-06T04:55:18.440Z,1006.22
2018-02-06T04:55:58.873Z,1006.18
2018-02-06T04:56:39.312Z,1006.15
2018-02-06T04:57:19.680Z,1006.17
2018-02-06T04:58:00.174Z,1006.1
2018-02-06T04:58:40.465Z,1006.13
2018-02-06T04:59:20.925Z,1006.14
2018-02-06T05:00:01.227Z,1006.13
2018-02-06T05:00:41.620Z,1006.12
2018-02-06T05:01:22.004Z,1006.12
2018-02-06T05:02:02.381Z,1006.13
2018-02-06T05:02:42.801Z,1006.13
2018-02-06T05:03:23.292Z,1006.14
2018-02-06T05:04:03.622Z,1006.15
2018-02-06T05:04:44.071Z,1006.14
2018-02-06T05:05:24.396Z,1006.12
2018-02-06T05:06:04.790Z,1006.08
2018-02-06T05:06:45.174Z,1006.1
2018-02-06T05:07:25.585Z,1006.06
2018-02-06T05:08:05.960Z,1006.01
2018-02-06T05:08:46.354Z,1006.05
2018-02-06T05:09:26.747Z,1006.03
2018-02-06T05:10:07.156Z,1005.97
2018-02-06T05:12:25.018Z,1005.99
2018-02-06T05:13:05.443Z,1005.99
2018-02-06T05:13:45.875Z,1005.99
2018-02-06T05:14:26.248Z,1005.97
2018-02-06T05:15:06.609Z,1006.01
2018-02-06T05:15:47.000Z,1005.94
2018-02-06T05:16:27.400Z,1005.93
2018-02-06T05:17:07.755Z,1005.94
2018-02-06T05:19:25.336Z,1005.92
2018-02-06T05:20:05.686Z,1005.91
2018-02-06T05:20:46.083Z,1005.89
2018-02-06T05:21:26.508Z,1005.85
2018-02-06T05:22:06.833Z,1005.88
2018-02-06T05:22:47.228Z,1005.83
2018-02-06T05:23:27.653Z,1005.87
2018-02-06T05:24:08.034Z,1005.86
2018-02-06T05:24:48.432Z,1005.86
2018-02-06T05:25:28.818Z,1005.81
2018-02-06T05:26:09.193Z,1005.87
2018-02-06T05:26:49.629Z,1005.89
2018-02-06T05:27:30.014Z,1005.91
2018-02-06T05:28:10.372Z,1005.92
2018-02-06T05:28:50.764Z,1005.88
2018-02-06T05:29:31.163Z,1005.91
2018-02-06T05:30:11.535Z,1005.89
2018-02-06T05:30:51.923Z,1005.92
2018-02-06T05:31:32.340Z,1005.9
2018-02-06T05:32:12.795Z,1005.93
2018-02-06T05:32:53.146Z,1005.91
2018-02-06T05:33:33.618Z,1005.87
2018-02-06T05:34:13.961Z,1005.89
2018-02-06T05:36:26.967Z,1005.89
2018-02-06T05:37:07.589Z,1005.82
2018-02-06T05:37:47.999Z,1005.84
2018-02-06T05:38:28.405Z,1005.83
2018-02-06T05:40:43.804Z,1005.82
2018-02-06T05:41:23.231Z,1005.77
2018-02-06T05:42:03.630Z,1005.76
2018-02-06T05:42:44.044Z,1005.74
2018-02-06T05:43:24.442Z,1005.74
2018-02-06T05:44:04.870Z,1005.73
2018-02-06T05:44:45.241Z,1005.75
2018-02-06T05:45:25.649Z,1005.75
2018-02-06T05:46:06.045Z,1005.77
2018-02-06T05:46:46.536Z,1005.7
2018-02-06T05:47:26.975Z,1005.76
2018-02-06T05:48:07.403Z,1005.72
2018-02-06T05:48:47.891Z,1005.69
2018-02-06T05:49:28.353Z,1005.68
2018-02-06T05:50:08.790Z,1005.69
2018-02-06T05:50:49.121Z,1005.66
2018-02-06T05:51:29.651Z,1005.69
2018-02-06T05:53:57.721Z,1005.65
2018-02-06T05:54:37.663Z,1005.66
2018-02-06T05:57:05.402Z,1005.64
2018-02-06T05:57:45.881Z,1005.59
2018-02-06T05:58:26.297Z,1005.6
2018-02-06T05:59:06.726Z,1005.6
2018-02-06T05:59:47.142Z,1005.6
2018-02-06T06:00:27.508Z,1005.57
2018-02-06T06:01:07.930Z,1005.56
2018-02-06T06:01:48.333Z,1005.54
2018-02-06T06:02:28.733Z,1005.49
2018-02-06T06:03:09.108Z,1005.51
2018-02-06T06:05:09.022Z,1005.51
2018-02-06T06:05:49.374Z,1005.53
2018-02-06T06:06:29.774Z,1005.51
2018-02-06T06:07:10.168Z,1005.52
2018-02-06T06:07:50.611Z,1005.5
2018-02-06T06:08:31.076Z,1005.53
2018-02-06T06:09:11.404Z,1005.53
2018-02-06T06:09:51.814Z,1005.53
2018-02-06T06:10:32.187Z,1005.51
2018-02-06T06:11:12.567Z,1005.54
2018-02-06T06:11:53.055Z,1005.5
2018-02-06T06:12:33.403Z,1005.51
2018-02-06T06:13:13.816Z,1005.52
2018-02-06T06:13:54.598Z,1005.51
2018-02-06T06:14:35.201Z,1005.5
2018-02-06T06:15:15.597Z,1005.51
2018-02-06T06:17:35.716Z,1005.46
2018-02-06T06:18:15.090Z,1005.46
2018-02-06T06:18:55.550Z,1005.44
2018-02-06T06:19:35.943Z,1005.44
2018-02-06T06:20:16.332Z,1005.41
2018-02-06T06:22:09.317Z,1005.43
2018-02-06T06:22:51.123Z,1005.39
2018-02-06T06:23:31.550Z,1005.4
2018-02-06T06:24:11.877Z,1005.4
2018-02-06T06:24:52.290Z,1005.41
2018-02-06T06:25:32.677Z,1005.36
2018-02-06T06:26:13.092Z,1005.4
2018-02-06T06:28:09.253Z,1005.35
2018-02-06T06:28:49.136Z,1005.37
2018-02-06T06:29:29.468Z,1005.4
2018-02-06T06:30:09.899Z,1005.39
2018-02-06T06:30:50.279Z,1005.36
2018-02-06T06:31:30.712Z,1005.36
2018-02-06T06:32:11.117Z,1005.37
2018-02-06T06:32:51.522Z,1005.34
2018-02-06T06:33:31.929Z,1005.39
2018-02-06T06:34:12.317Z,1005.34
2018-02-06T06:36:25.316Z,1005.36
2018-02-06T06:37:08.127Z,1005.37
2018-02-06T06:39:36.868Z,1005.34
2018-02-06T06:40:16.652Z,1005.39
2018-02-06T06:40:57.043Z,1005.4
2018-02-06T06:41:37.367Z,1005.35
2018-02-06T06:42:17.748Z,1005.31
2018-02-06T06:42:58.129Z,1005.34
2018-02-06T06:43:38.534Z,1005.32
2018-02-06T06:44:20.561Z,1005.29
2018-02-06T06:45:00.909Z,1005.28
2018-02-06T06:45:41.339Z,1005.27
2018-02-06T06:46:21.760Z,1005.26
2018-02-06T06:47:02.258Z,1005.3
2018-02-06T06:47:42.617Z,1005.27
2018-02-06T06:48:23.076Z,1005.26
2018-02-06T06:49:03.434Z,1005.23
2018-02-06T06:49:43.883Z,1005.24
2018-02-06T06:50:24.255Z,1005.23
2018-02-06T06:51:04.678Z,1005.18
2018-02-06T06:51:45.371Z,1005.17
2018-02-06T06:52:25.789Z,1005.22
2018-02-06T06:53:06.221Z,1005.2
2018-02-06T06:53:46.627Z,1005.21
2018-02-06T06:54:27.130Z,1005.24
2018-02-06T06:55:07.494Z,1005.21
2018-02-06T06:55:47.936Z,1005.23
2018-02-06T06:56:28.341Z,1005.22
2018-02-06T06:57:08.821Z,1005.24
2018-02-06T06:57:49.469Z,1005.23
2018-02-06T06:58:29.881Z,1005.2
2018-02-06T06:59:10.210Z,1005.24
2018-02-06T06:59:50.656Z,1005.2
2018-02-06T07:00:31.088Z,1005.22
2018-02-06T07:01:11.833Z,1005.25
2018-02-06T07:01:52.163Z,1005.23
2018-02-06T07:05:49.430Z,1005.21
2018-02-06T07:06:33.006Z,1005.23
2018-02-06T07:07:13.459Z,1005.16
2018-02-06T07:07:53.785Z,1005.18
2018-02-06T07:09:48.631Z,1005.18
2018-02-06T07:11:48.786Z,1005.18
2018-02-06T07:12:29.192Z,1005.19
2018-02-06T07:14:27.803Z,1005.16
2018-02-06T07:15:08.693Z,1005.21
2018-02-06T07:18:41.176Z,1005.2
2018-02-06T07:19:22.459Z,1005.2
2018-02-06T07:20:02.884Z,1005.24
2018-02-06T07:20:43.304Z,1005.21
2018-02-06T07:21:23.803Z,1005.22
2018-02-06T07:23:57.280Z,1005.23
2018-02-06T07:24:37.641Z,1005.22
2018-02-06T07:25:18.005Z,1005.19
2018-02-06T07:25:58.436Z,1005.19
2018-02-06T07:26:38.821Z,1005.24
2018-02-06T07:27:19.229Z,1005.2
2018-02-06T07:27:59.673Z,1005.16
2018-02-06T07:28:40.148Z,1005.14
2018-02-06T07:29:20.532Z,1005.13
2018-02-06T07:30:00.914Z,1005.16
2018-02-06T07:30:41.330Z,1005.16
2018-02-06T07:31:21.709Z,1005.16
2018-02-06T07:32:02.096Z,1005.13
2018-02-06T07:32:42.483Z,1005.13
2018-02-06T07:33:22.853Z,1005.14
2018-02-06T07:34:03.396Z,1005.14
2018-02-06T07:36:25.401Z,1005.09
2018-02-06T07:37:19.831Z,1005.1
2018-02-06T07:38:28.145Z,1005.15
2018-02-06T07:40:53.676Z,1005.13
2018-02-06T07:41:33.977Z,1005.11
2018-02-06T07:42:14.621Z,1005.13
2018-02-06T07:42:55.053Z,1005.13
2018-02-06T07:43:35.492Z,1005.15
2018-02-06T07:44:16.865Z,1005.18
2018-02-06T07:44:57.443Z,1005.14
2018-02-06T07:45:37.833Z,1005.17
2018-02-06T07:47:51.830Z,1005.14
2018-02-06T07:48:34.364Z,1005.13
2018-02-06T07:49:14.738Z,1005.13
2018-02-06T07:49:55.121Z,1005.11
2018-02-06T07:50:35.528Z,1005.13
2018-02-06T07:51:15.946Z,1005.15
2018-02-06T07:53:18.296Z,1005.14
2018-02-06T07:53:56.646Z,1005.13
2018-02-06T07:54:36.998Z,1005.17
2018-02-06T07:55:17.508Z,1005.16
2018-02-06T07:55:57.992Z,1005.18
2018-02-06T07:56:38.334Z,1005.17
2018-02-06T07:57:18.709Z,1005.19
2018-02-06T07:57:59.162Z,1005.17
2018-02-06T07:59:57.179Z,1005.23
2018-02-06T08:00:37.759Z,1005.18
2018-02-06T08:01:18.170Z,1005.2
2018-02-06T08:01:58.556Z,1005.2
2018-02-06T08:03:51.033Z,1005.21
2018-02-06T08:04:31.437Z,1005.2
2018-02-06T08:05:11.794Z,1005.21
2018-02-06T08:05:52.209Z,1005.19
2018-02-06T08:06:32.870Z,1005.21
2018-02-06T08:07:13.467Z,1005.18
2018-02-06T08:07:53.980Z,1005.22
2018-02-06T08:08:34.483Z,1005.25
2018-02-06T08:09:14.932Z,1005.23
2018-02-06T08:09:55.369Z,1005.22
2018-02-06T08:10:35.811Z,1005.23
2018-02-06T08:11:16.184Z,1005.22
2018-02-06T08:11:56.608Z,1005.21
2018-02-06T08:12:37.002Z,1005.22
2018-02-06T08:14:30.640Z,1005.21
2018-02-06T08:15:10.575Z,1005.21
2018-02-06T08:15:51.070Z,1005.22
2018-02-06T08:16:31.461Z,1005.19
2018-02-06T08:17:11.847Z,1005.21
2018-02-06T08:17:52.245Z,1005.18
2018-02-06T08:18:32.695Z,1005.2
2018-02-06T08:19:13.166Z,1005.19
2018-02-06T08:19:53.558Z,1005.22
2018-02-06T08:20:33.964Z,1005.18
2018-02-06T08:22:32.622Z,1005.21
2018-02-06T08:24:35.106Z,1005.18
2018-02-06T08:25:15.599Z,1005.18
2018-02-06T08:25:55.993Z,1005.15
2018-02-06T08:26:36.443Z,1005.15
2018-02-06T08:27:16.808Z,1005.11
2018-02-06T08:27:57.255Z,1005.09
2018-02-06T08:28:37.841Z,1005.07
2018-02-06T08:29:18.356Z,1005.06
2018-02-06T08:29:59.547Z,1005.05
2018-02-06T08:30:40.088Z,1005.03
2018-02-06T08:31:21.000Z,1005.02
2018-02-06T08:32:01.427Z,1004.95
2018-02-06T08:32:41.862Z,1004.99
2018-02-06T08:33:22.251Z,1004.99
2018-02-06T08:34:02.692Z,1004.97
2018-02-06T08:34:43.122Z,1004.97
2018-02-06T08:35:23.709Z,1004.96
2018-02-06T08:36:04.138Z,1004.96
2018-02-06T08:36:44.592Z,1004.98
2018-02-06T08:37:25.019Z,1004.97
2018-02-06T08:38:05.387Z,1004.97
2018-02-06T08:40:13.760Z,1004.89
2018-02-06T08:41:07.583Z,1004.83
2018-02-06T08:42:03.148Z,1004.84
2018-02-06T08:42:56.260Z,1004.74
2018-02-06T08:45:22.217Z,1004.74
2018-02-06T08:46:17.026Z,1004.7
2018-02-06T08:47:12.020Z,1004.73
2018-02-06T08:48:13.024Z,1004.71
2018-02-06T08:49:06.593Z,1004.72
2018-02-06T08:50:13.881Z,1004.66
2018-02-06T08:51:11.279Z,1004.7
2018-02-06T08:56:22.770Z,1004.66
2018-02-06T08:57:03.063Z,1004.69
2018-02-06T08:57:43.565Z,1004.65
2018-02-06T08:58:23.942Z,1004.68
2018-02-06T09:02:05.895Z,1004.63
2018-02-06T09:02:46.019Z,1004.64
2018-02-06T09:03:26.617Z,1004.63
2018-02-06T09:04:07.014Z,1004.65
2018-02-06T09:04:47.418Z,1004.67
2018-02-06T09:05:27.820Z,1004.61
2018-02-06T09:06:08.368Z,1004.63
2018-02-06T09:06:48.710Z,1004.58
2018-02-06T09:07:29.241Z,1004.59
2018-02-06T09:08:09.782Z,1004.56
2018-02-06T09:08:50.040Z,1004.56
2018-02-06T09:09:30.457Z,1004.55
2018-02-06T09:10:11.073Z,1004.58
2018-02-06T09:10:51.519Z,1004.57
2018-02-06T09:11:31.933Z,1004.54
2018-02-06T09:12:12.317Z,1004.57
2018-02-06T09:12:52.768Z,1004.58
2018-02-06T09:13:33.209Z,1004.56
2018-02-06T09:14:13.667Z,1004.6
2018-02-06T09:14:53.992Z,1004.6
2018-02-06T09:15:34.417Z,1004.61
2018-02-06T09:16:14.900Z,1004.62
2018-02-06T09:16:55.396Z,1004.63
2018-02-06T09:17:35.886Z,1004.65
2018-02-06T09:18:16.400Z,1004.64
2018-02-06T09:18:56.783Z,1004.73
2018-02-06T09:19:37.211Z,1004.69
2018-02-06T09:20:18.364Z,1004.7
2018-02-06T09:22:21.408Z,1004.69
2018-02-06T09:24:13.622Z,1004.68
2018-02-06T09:24:55.593Z,1004.68
2018-02-06T09:25:35.962Z,1004.66
2018-02-06T09:26:16.346Z,1004.66
2018-02-06T09:26:56.796Z,1004.71
2018-02-06T09:27:37.261Z,1004.72
2018-02-06T09:28:17.692Z,1004.68
2018-02-06T09:28:58.189Z,1004.74
2018-02-06T09:29:45.380Z,1004.75
2018-02-06T09:30:25.936Z,1004.71
2018-02-06T09:31:06.384Z,1004.76
2018-02-06T09:31:46.834Z,1004.77
2018-02-06T09:32:27.257Z,1004.74
2018-02-06T09:33:07.678Z,1004.72
2018-02-06T09:33:48.085Z,1004.76
2018-02-06T09:34:28.500Z,1004.73
2018-02-06T09:35:08.988Z,1004.69
2018-02-06T09:35:49.375Z,1004.69
2018-02-06T09:36:29.810Z,1004.71
2018-02-06T09:37:10.294Z,1004.72
2018-02-06T09:37:50.762Z,1004.68
2018-02-06T09:38:31.166Z,1004.66
2018-02-06T09:41:34.745Z,1004.68
2018-02-06T09:42:15.152Z,1004.68
2018-02-06T09:42:55.544Z,1004.68
2018-02-06T09:43:35.935Z,1004.7
2018-02-06T09:44:16.370Z,1004.72
2018-02-06T09:44:56.964Z,1004.68
2018-02-06T09:45:37.387Z,1004.67
2018-02-06T09:46:17.769Z,1004.66
2018-02-06T09:46:58.162Z,1004.69
2018-02-06T09:47:38.616Z,1004.65
2018-02-06T09:48:18.981Z,1004.63
2018-02-06T09:48:59.400Z,1004.61
2018-02-06T09:49:39.823Z,1004.56
2018-02-06T09:50:20.234Z,1004.57
2018-02-06T09:51:00.698Z,1004.6
2018-02-06T09:51:41.086Z,1004.58
2018-02-06T09:52:21.530Z,1004.54
2018-02-06T09:53:02.244Z,1004.59
2018-02-06T09:53:43.064Z,1004.56
2018-02-06T09:54:23.464Z,1004.57
2018-02-06T09:55:03.878Z,1004.53
2018-02-06T09:55:44.471Z,1004.5
2018-02-06T09:56:24.948Z,1004.56
2018-02-06T09:57:05.324Z,1004.55
2018-02-06T09:57:45.957Z,1004.53
2018-02-06T09:58:27.489Z,1004.53
2018-02-06T09:59:07.186Z,1004.52
2018-02-06T09:59:47.960Z,1004.51
2018-02-06T10:00:28.057Z,1004.5
2018-02-06T10:01:08.501Z,1004.52
2018-02-06T10:01:52.043Z,1004.52
2018-02-06T10:02:32.978Z,1004.54
2018-02-06T10:03:11.970Z,1004.55
2018-02-06T10:03:52.402Z,1004.52
2018-02-06T10:04:33.441Z,1004.56
2018-02-06T10:05:16.433Z,1004.53
2018-02-06T10:47:17.315Z,1004.25
2018-02-06T10:49:39.328Z,1004.28
2018-02-06T10:50:21.594Z,1004.27
2018-02-06T10:52:25.273Z,1004.23
2018-02-06T10:53:08.849Z,1004.28
2018-02-06T10:53:49.235Z,1004.25
2018-02-06T10:54:29.761Z,1004.24
2018-02-06T10:55:10.114Z,1004.2
2018-02-06T10:55:50.450Z,1004.19
2018-02-06T10:56:30.894Z,1004.16
2018-02-06T10:57:11.329Z,1004.15
2018-02-06T10:57:51.726Z,1004.11
2018-02-06T10:58:32.117Z,1004.09
2018-02-06T10:59:12.620Z,1004.03
2018-02-06T10:59:53.111Z,1004.02
2018-02-06T11:00:34.421Z,1004.05
2018-02-06T11:01:14.878Z,1004.02
2018-02-06T11:01:55.696Z,1004.03
2018-02-06T11:02:36.529Z,1003.98
2018-02-06T11:03:17.405Z,1004.03
2018-02-06T11:03:58.609Z,1004.05
2018-02-06T11:04:39.010Z,1004.04
2018-02-06T11:05:19.397Z,1004.06
2018-02-06T11:06:00.232Z,1004.11
2018-02-06T11:06:40.481Z,1004.04
2018-02-06T11:07:21.022Z,1004.1
2018-02-06T11:08:01.772Z,1004.07
2018-02-06T11:08:42.464Z,1004.07
2018-02-06T11:09:22.981Z,1004.06
2018-02-06T11:10:03.603Z,1004
2018-02-06T11:10:44.066Z,1003.97
2018-02-06T11:11:24.500Z,1003.99
2018-02-06T11:12:04.788Z,1003.97
2018-02-06T11:12:45.342Z,1003.95
2018-02-06T11:13:26.385Z,1003.98
2018-02-06T11:14:06.833Z,1004
2018-02-06T11:14:47.952Z,1003.95
2018-02-06T11:15:28.850Z,1004
2018-02-06T11:16:09.872Z,1003.89
2018-02-06T11:16:51.928Z,1003.89
2018-02-06T11:17:32.412Z,1003.83
2018-02-06T11:18:13.239Z,1003.86
2018-02-06T11:18:53.839Z,1003.81
2018-02-06T11:19:35.653Z,1003.77
2018-02-06T11:20:15.952Z,1003.78
2018-02-06T11:20:56.202Z,1003.71
2018-02-06T11:21:36.900Z,1003.75
2018-02-06T11:22:17.360Z,1003.72
2018-02-06T11:22:57.961Z,1003.72
2018-02-06T11:23:39.122Z,1003.7
2018-02-06T11:24:19.654Z,1003.7
2018-02-06T11:25:00.647Z,1003.67
2018-02-06T11:25:41.052Z,1003.68
2018-02-06T11:26:21.298Z,1003.7
2018-02-06T11:27:02.025Z,1003.66
2018-02-06T11:27:43.805Z,1003.71
2018-02-06T11:28:24.660Z,1003.72
2018-02-06T11:29:05.568Z,1003.72
2018-02-06T11:29:46.592Z,1003.76
2018-02-06T11:30:27.644Z,1003.73
2018-02-06T11:31:07.205Z,1003.75
2018-02-06T11:31:47.731Z,1003.74
2018-02-06T11:32:28.172Z,1003.75
2018-02-06T11:33:08.582Z,1003.73
2018-02-06T11:33:49.124Z,1003.74
2018-02-06T11:34:29.528Z,1003.78
2018-02-06T11:35:10.122Z,1003.78
2018-02-06T11:35:50.418Z,1003.77
2018-02-06T11:36:30.877Z,1003.8
2018-02-06T11:37:11.342Z,1003.74
2018-02-06T11:37:51.788Z,1003.8
2018-02-06T11:38:32.322Z,1003.75
2018-02-06T11:39:12.634Z,1003.72
2018-02-06T11:39:53.045Z,1003.73
2018-02-06T11:40:33.840Z,1003.69
2018-02-06T11:41:14.179Z,1003.68
2018-02-06T11:41:54.704Z,1003.62
2018-02-06T11:42:35.695Z,1003.61
2018-02-06T11:43:15.752Z,1003.63
2018-02-06T11:43:56.278Z,1003.58
2018-02-06T11:44:37.409Z,1003.59
2018-02-06T11:45:17.606Z,1003.57
2018-02-06T11:45:58.088Z,1003.49
2018-02-06T11:46:38.685Z,1003.52
2018-02-06T11:47:19.170Z,1003.47
2018-02-06T11:47:59.871Z,1003.48
2018-02-06T11:48:40.594Z,1003.53
2018-02-06T11:49:21.205Z,1003.54
2018-02-06T11:50:02.669Z,1003.47
2018-02-06T11:50:42.530Z,1003.51
2018-02-06T11:51:23.122Z,1003.48
2018-02-06T11:52:03.590Z,1003.49
2018-02-06T11:52:44.005Z,1003.47
2018-02-06T11:53:24.458Z,1003.5
2018-02-06T11:54:05.479Z,1003.45
2018-02-06T11:54:46.059Z,1003.39
2018-02-06T11:55:26.724Z,1003.35
2018-02-06T11:56:06.930Z,1003.39
2018-02-06T11:56:49.698Z,1003.34
2018-02-06T11:57:29.234Z,1003.33
2018-02-06T11:58:09.837Z,1003.29
2018-02-06T11:58:50.549Z,1003.27
2018-02-06T11:59:31.425Z,1003.26
2018-02-06T12:00:11.952Z,1003.24
2018-02-06T12:00:53.285Z,1003.3
2018-02-06T12:01:34.197Z,1003.23
2018-02-06T12:02:14.349Z,1003.29
2018-02-06T12:02:55.884Z,1003.25
2018-02-06T12:03:36.734Z,1003.32
2018-02-06T12:04:16.976Z,1003.34
2018-02-06T12:04:57.242Z,1003.35
2018-02-06T12:05:38.672Z,1003.36
2018-02-06T12:06:19.310Z,1003.37
2018-02-06T12:07:00.667Z,1003.35
2018-02-06T12:07:40.844Z,1003.39
2018-02-06T12:08:22.252Z,1003.36
2018-02-06T12:09:02.882Z,1003.33
2018-02-06T12:09:42.862Z,1003.34
2018-02-06T12:10:24.164Z,1003.34
2018-02-06T12:11:04.159Z,1003.34
2018-02-06T12:11:45.171Z,1003.35
2018-02-06T12:12:25.952Z,1003.35
2018-02-06T12:13:05.723Z,1003.34
2018-02-06T12:13:46.596Z,1003.37
2018-02-06T12:14:28.167Z,1003.45
2018-02-06T12:15:09.277Z,1003.44
2018-02-06T12:15:49.238Z,1003.43
2018-02-06T12:16:30.666Z,1003.41
2018-02-06T12:17:11.326Z,1003.46